createdAt,value
2022-12-23T00:08:19.292Z,100.00
2022-12-23T00:18:21.798Z,100.00
2022-12-23T00:28:26.375Z,100.00
2022-12-23T00:38:47.338Z,100.00
2022-12-23T00:49:08.412Z,100.00
2022-12-23T00:59:11.091Z,100.00
2022-12-23T01:09:14.250Z,100.00
2022-12-23T01:19:16.918Z,100.00
2022-12-23T01:29:19.447Z,100.00
2022-12-23T01:39:21.962Z,100.00
2022-12-23T01:49:24.918Z,100.00
2022-12-23T01:59:45.858Z,100.00
2022-12-23T02:09:48.710Z,100.00
2022-12-23T02:19:51.246Z,100.00
2022-12-23T02:30:27.351Z,100.00
2022-12-23T02:40:54.021Z,100.00
2022-12-23T02:50:59.440Z,100.00
2022-12-23T03:01:03.738Z,100.00
2022-12-23T03:11:13.591Z,100.00
2022-12-23T03:21:31.858Z,100.00
2022-12-23T03:31:37.078Z,100.00
2022-12-23T03:41:45.268Z,100.00
2022-12-23T03:52:06.347Z,100.00
2022-12-23T04:02:32.399Z,100.00
2022-12-23T04:12:35.221Z,100.00
2022-12-23T04:22:37.791Z,100.00
2022-12-23T04:32:41.689Z,100.00
2022-12-23T04:42:44.251Z,100.00
2022-12-23T04:52:46.787Z,100.00
2022-12-23T05:02:49.508Z,100.00
2022-12-23T05:12:52.086Z,100.00
2022-12-23T05:22:54.567Z,100.00
2022-12-23T05:32:57.437Z,100.00
2022-12-23T05:42:59.992Z,100.00
2022-12-23T05:53:02.612Z,100.00
2022-12-23T06:03:05.500Z,100.00
2022-12-23T06:13:08.109Z,100.00
2022-12-23T06:23:10.624Z,100.00
2022-12-23T06:33:13.183Z,100.00
2022-12-23T06:43:15.851Z,100.00
2022-12-23T06:53:18.388Z,100.00
2022-12-23T07:03:22.290Z,100.00
2022-12-23T07:13:25.073Z,100.00
2022-12-23T07:23:27.807Z,100.00
2022-12-23T07:33:30.327Z,100.00
2022-12-23T07:43:34.659Z,100.00
2022-12-23T07:53:37.204Z,100.00
2022-12-23T08:03:39.826Z,100.00
2022-12-23T08:13:44.212Z,100.00
2022-12-23T08:23:48.325Z,100.00
2022-12-23T08:33:53.789Z,100.00
2022-12-23T08:43:57.087Z,100.00
2022-12-23T08:54:01.688Z,100.00
2022-12-23T09:04:05.888Z,100.00
2022-12-23T09:14:10.284Z,100.00
2022-12-23T09:24:12.806Z,88.23
2022-12-23T09:34:15.320Z,88.58
2022-12-23T09:44:35.841Z,86.35
2022-12-23T09:54:46.078Z,83.18
2022-12-23T10:04:48.695Z,79.91
2022-12-23T10:14:55.835Z,80.09
2022-12-23T10:25:01.360Z,72.32
2022-12-23T10:35:38.567Z,76.09
2022-12-23T10:45:47.728Z,74.00
2022-12-23T10:55:50.569Z,65.25
2022-12-23T11:05:54.220Z,67.43
2022-12-23T11:16:23.442Z,66.48
2022-12-23T11:26:26.132Z,75.52
2022-12-23T11:36:31.250Z,80.41
2022-12-23T11:46:34.893Z,81.31
2022-12-23T11:56:40.260Z,81.78
2022-12-23T12:06:49.783Z,82.34
2022-12-23T12:17:02.729Z,83.33
2022-12-23T12:27:07.556Z,82.07
2022-12-23T12:37:29.839Z,81.96
2022-12-23T12:48:18.766Z,83.04
2022-12-23T12:58:24.340Z,83.71
2022-12-23T13:08:39.618Z,82.47
2022-12-23T13:18:43.242Z,79.98
2022-12-23T13:28:51.912Z,80.56
2022-12-23T13:39:08.343Z,80.56
2022-12-23T13:49:39.010Z,81.47
2022-12-23T13:59:43.576Z,81.53
2022-12-23T14:09:53.332Z,80.70
2022-12-23T14:20:08.673Z,85.76
2022-12-23T14:30:42.849Z,86.89
2022-12-23T14:41:00.603Z,87.64
2022-12-23T14:51:23.545Z,87.46
2022-12-23T15:01:50.127Z,86.18
2022-12-23T15:11:54.974Z,86.29
2022-12-23T15:22:20.641Z,86.63
2022-12-23T15:32:26.754Z,88.67
2022-12-23T15:42:35.662Z,91.28
2022-12-23T15:52:41.321Z,95.17
2022-12-23T16:03:03.786Z,94.19
2022-12-23T16:13:19.951Z,95.57
2022-12-23T16:23:24.318Z,97.32
2022-12-23T16:33:40.786Z,97.09
2022-12-23T16:43:51.248Z,98.88
2022-12-23T16:53:57.054Z,100.00
2022-12-23T17:03:59.780Z,100.00
2022-12-23T17:14:06.879Z,100.00
2022-12-23T17:24:24.221Z,100.00
2022-12-23T17:34:26.996Z,100.00
2022-12-23T17:44:29.673Z,100.00
2022-12-23T17:54:33.375Z,100.00
2022-12-23T18:04:36.357Z,100.00
2022-12-23T18:14:39.229Z,100.00
2022-12-23T18:24:41.777Z,100.00
2022-12-23T18:34:44.566Z,100.00
2022-12-23T18:44:51.156Z,100.00
2022-12-23T18:54:54.013Z,100.00
2022-12-23T19:04:56.538Z,100.00
2022-12-23T19:14:59.145Z,100.00
2022-12-23T19:25:06.580Z,100.00
2022-12-23T19:35:14.307Z,100.00
2022-12-23T19:45:17.684Z,100.00
2022-12-23T19:55:20.211Z,100.00
2022-12-23T20:05:22.772Z,100.00
2022-12-23T20:15:25.272Z,100.00
2022-12-23T20:25:27.948Z,100.00
2022-12-23T20:35:31.052Z,100.00
2022-12-23T20:45:33.574Z,100.00
2022-12-23T20:55:36.893Z,100.00
2022-12-23T21:05:39.559Z,100.00
2022-12-23T21:15:42.172Z,100.00
2022-12-23T21:25:44.823Z,100.00
2022-12-23T21:35:48.164Z,100.00
2022-12-23T21:46:02.232Z,100.00
2022-12-23T21:56:07.424Z,100.00
2022-12-23T22:06:13.419Z,100.00
2022-12-23T22:16:21.715Z,100.00
2022-12-23T22:26:27.255Z,100.00
2022-12-23T22:36:30.564Z,100.00
2022-12-23T22:46:33.501Z,100.00
2022-12-23T22:56:36.277Z,100.00
2022-12-23T23:06:38.942Z,100.00
2022-12-23T23:16:41.682Z,100.00
2022-12-23T23:26:44.319Z,100.00
2022-12-23T23:36:47.667Z,100.00
2022-12-23T23:46:50.334Z,100.00
2022-12-23T23:56:53.087Z,100.00
